Terminal Aerodrome Forecast
Issued by NWS Shreveport, LA

Home | Current Version | Previous Version | Text Only | Print | Product List | Glossary On
Versions: 1 2 3 4 5 6 7 8 9 10 11 12 13 14 15
726
FTUS44 KSHV 261154
TAFELD
TAF
KELD 261154Z 2612/2712 18006KT P6SM BKN250
      TEMPO 2612/2615 BKN015
     FM261500 17010KT P6SM BKN035
     FM262100 17010KT P6SM VCTS BKN050CB
     FM270300 14008KT P6SM VCTS OVC050CB
     FM270900 15006KT P6SM VCTS BKN015 OVC030CB=

USA.gov is the U.S. government's official web portal to all federal, state and local government web resources and services.